EmailTwitter


Surface observations / United Kingdom / EGTE (03839)

Regions: Quebec | Canada | USA | Europe | France | UK | Elsewhere
Station
Display
Info & Location for EGTE (03839) | Help decoding METAR

Weather Conditions observed on 2018/05/21 at 20:20 UTC at EXETER AIRPORT, UK (EGTE)

Sky conditions: few clouds.

Temperature: 17.0 Celsius.

Dewpoint: 10.0 Celsius.

Relative Humidity: 63%

Winds: Variable at 6 km/h or 3 knots.

Mean Sea level Pressure: 101.50 kilopascals.

Horizontal visibility: 6.21 statute miles or 9.94 kilometers.

Coded METAR:

EGTE 212020Z VRB03KT 9999 FEW050TCU 17/10 Q1015=